Terminal Aerodrome Forecast
Issued by NWS Nashville, TN

Home | Current Version | Previous Version | Text Only | Print | Product List | Glossary On
Versions: 1 2 3 4 5 6 7 8 9 10 11 12 13 14 15 16 17 18 19 20 21 22 23 24 25 26
595
FTUS44 KOHX 092328
TAFCSV
TAF
KCSV 092328Z 1000/1024 28012G21KT 2SM -SN FEW011 BKN017 OVC028
      TEMPO 1000/1001 2SM -SN OVC015
     FM100800 29008KT 6SM -SN OVC035=

USA.gov is the U.S. government's official web portal to all federal, state and local government web resources and services.